sensor_id;sensor_type;location;lat;lon;timestamp;P1;durP1;ratioP1;P2;durP2;ratioP2
4630;SDS011;2328;48.170;11.602;2023-05-06T00:01:10;1.70;;;1.60;;
4630;SDS011;2328;48.170;11.602;2023-05-06T00:03:41;2.50;;;2.10;;
4630;SDS011;2328;48.170;11.602;2023-05-06T00:06:10;1.70;;;1.60;;
4630;SDS011;2328;48.170;11.602;2023-05-06T00:08:38;4.70;;;2.50;;
4630;SDS011;2328;48.170;11.602;2023-05-06T00:11:07;2.93;;;2.00;;
4630;SDS011;2328;48.170;11.602;2023-05-06T00:13:35;2.83;;;2.40;;
4630;SDS011;2328;48.170;11.602;2023-05-06T00:16:05;4.20;;;2.10;;
4630;SDS011;2328;48.170;11.602;2023-05-06T00:18:34;3.17;;;2.37;;
4630;SDS011;2328;48.170;11.602;2023-05-06T00:21:03;1.80;;;1.70;;
4630;SDS011;2328;48.170;11.602;2023-05-06T00:23:31;2.50;;;2.03;;
4630;SDS011;2328;48.170;11.602;2023-05-06T00:26:00;2.80;;;2.13;;
4630;SDS011;2328;48.170;11.602;2023-05-06T00:28:28;2.90;;;1.40;;
4630;SDS011;2328;48.170;11.602;2023-05-06T00:30:57;2.43;;;2.00;;
4630;SDS011;2328;48.170;11.602;2023-05-06T00:33:27;2.03;;;1.83;;
4630;SDS011;2328;48.170;11.602;2023-05-06T00:35:55;3.67;;;2.13;;
4630;SDS011;2328;48.170;11.602;2023-05-06T00:38:24;2.03;;;1.93;;
4630;SDS011;2328;48.170;11.602;2023-05-06T00:40:52;2.23;;;1.90;;
4630;SDS011;2328;48.170;11.602;2023-05-06T00:43:21;2.40;;;2.20;;
4630;SDS011;2328;48.170;11.602;2023-05-06T00:45:49;2.00;;;1.83;;
4630;SDS011;2328;48.170;11.602;2023-05-06T00:48:24;9.93;;;2.70;;
4630;SDS011;2328;48.170;11.602;2023-05-06T00:50:54;1.90;;;1.70;;
4630;SDS011;2328;48.170;11.602;2023-05-06T00:53:23;2.23;;;1.90;;
4630;SDS011;2328;48.170;11.602;2023-05-06T00:55:51;2.87;;;1.90;;
4630;SDS011;2328;48.170;11.602;2023-05-06T00:58:20;1.93;;;1.70;;
4630;SDS011;2328;48.170;11.602;2023-05-06T01:00:48;2.60;;;1.97;;
4630;SDS011;2328;48.170;11.602;2023-05-06T01:03:17;4.40;;;2.13;;
4630;SDS011;2328;48.170;11.602;2023-05-06T01:05:49;3.00;;;2.30;;
4630;SDS011;2328;48.170;11.602;2023-05-06T01:08:22;3.37;;;2.80;;
4630;SDS011;2328;48.170;11.602;2023-05-06T01:10:53;1.97;;;1.87;;
4630;SDS011;2328;48.170;11.602;2023-05-06T01:13:23;10.03;;;4.23;;
4630;SDS011;2328;48.170;11.602;2023-05-06T01:15:57;1.60;;;1.50;;
4630;SDS011;2328;48.170;11.602;2023-05-06T01:18:26;4.73;;;2.53;;
4630;SDS011;2328;48.170;11.602;2023-05-06T01:20:56;2.73;;;2.43;;
4630;SDS011;2328;48.170;11.602;2023-05-06T01:23:28;2.27;;;2.10;;
4630;SDS011;2328;48.170;11.602;2023-05-06T01:25:57;2.97;;;2.17;;
4630;SDS011;2328;48.170;11.602;2023-05-06T01:28:26;2.73;;;1.90;;
4630;SDS011;2328;48.170;11.602;2023-05-06T01:30:57;2.23;;;2.10;;
4630;SDS011;2328;48.170;11.602;2023-05-06T01:33:28;1.90;;;1.77;;
4630;SDS011;2328;48.170;11.602;2023-05-06T01:36:02;2.50;;;2.17;;
4630;SDS011;2328;48.170;11.602;2023-05-06T01:38:36;2.07;;;1.87;;
4630;SDS011;2328;48.170;11.602;2023-05-06T01:41:05;2.47;;;2.20;;
4630;SDS011;2328;48.170;11.602;2023-05-06T01:43:36;1.90;;;1.70;;
4630;SDS011;2328;48.170;11.602;2023-05-06T01:46:05;2.07;;;1.80;;
4630;SDS011;2328;48.170;11.602;2023-05-06T01:48:36;1.97;;;1.87;;
4630;SDS011;2328;48.170;11.602;2023-05-06T01:51:06;2.00;;;1.80;;
4630;SDS011;2328;48.170;11.602;2023-05-06T01:53:36;2.10;;;1.90;;
4630;SDS011;2328;48.170;11.602;2023-05-06T01:56:04;2.30;;;2.10;;
4630;SDS011;2328;48.170;11.602;2023-05-06T01:58:33;3.70;;;2.23;;
4630;SDS011;2328;48.170;11.602;2023-05-06T02:01:02;2.40;;;1.97;;
4630;SDS011;2328;48.170;11.602;2023-05-06T02:03:30;2.53;;;2.23;;
4630;SDS011;2328;48.170;11.602;2023-05-06T02:05:59;1.67;;;1.57;;
4630;SDS011;2328;48.170;11.602;2023-05-06T02:08:28;2.70;;;2.20;;
4630;SDS011;2328;48.170;11.602;2023-05-06T02:10:58;4.27;;;2.80;;
4630;SDS011;2328;48.170;11.602;2023-05-06T02:13:26;4.00;;;2.57;;
4630;SDS011;2328;48.170;11.602;2023-05-06T02:15:55;3.20;;;2.30;;
4630;SDS011;2328;48.170;11.602;2023-05-06T02:18:24;6.80;;;2.50;;
4630;SDS011;2328;48.170;11.602;2023-05-06T02:20:52;3.80;;;2.60;;
4630;SDS011;2328;48.170;11.602;2023-05-06T02:23:21;2.03;;;1.83;;
4630;SDS011;2328;48.170;11.602;2023-05-06T02:25:49;1.60;;;1.50;;
4630;SDS011;2328;48.170;11.602;2023-05-06T02:28:20;2.30;;;2.10;;
4630;SDS011;2328;48.170;11.602;2023-05-06T02:30:53;7.90;;;1.70;;
4630;SDS011;2328;48.170;11.602;2023-05-06T02:33:22;2.50;;;2.30;;
4630;SDS011;2328;48.170;11.602;2023-05-06T02:35:50;3.67;;;2.00;;
4630;SDS011;2328;48.170;11.602;2023-05-06T02:38:20;2.37;;;2.17;;
4630;SDS011;2328;48.170;11.602;2023-05-06T02:40:51;2.03;;;1.83;;
4630;SDS011;2328;48.170;11.602;2023-05-06T02:43:20;4.10;;;2.00;;
4630;SDS011;2328;48.170;11.602;2023-05-06T02:45:49;3.33;;;2.00;;
4630;SDS011;2328;48.170;11.602;2023-05-06T02:48:18;1.97;;;1.77;;
4630;SDS011;2328;48.170;11.602;2023-05-06T02:50:46;2.47;;;2.27;;
4630;SDS011;2328;48.170;11.602;2023-05-06T02:53:15;3.50;;;2.33;;
4630;SDS011;2328;48.170;11.602;2023-05-06T02:55:43;2.73;;;2.10;;
4630;SDS011;2328;48.170;11.602;2023-05-06T02:58:12;3.83;;;2.63;;
4630;SDS011;2328;48.170;11.602;2023-05-06T03:00:42;3.33;;;1.73;;
4630;SDS011;2328;48.170;11.602;2023-05-06T03:03:10;1.70;;;1.60;;
4630;SDS011;2328;48.170;11.602;2023-05-06T03:05:38;3.27;;;2.20;;
4630;SDS011;2328;48.170;11.602;2023-05-06T03:08:07;3.80;;;2.00;;
4630;SDS011;2328;48.170;11.602;2023-05-06T03:10:35;2.70;;;2.00;;
4630;SDS011;2328;48.170;11.602;2023-05-06T03:13:04;2.53;;;2.30;;
4630;SDS011;2328;48.170;11.602;2023-05-06T03:15:32;2.43;;;2.17;;
4630;SDS011;2328;48.170;11.602;2023-05-06T03:18:03;3.10;;;2.20;;
4630;SDS011;2328;48.170;11.602;2023-05-06T03:20:32;2.80;;;2.17;;
4630;SDS011;2328;48.170;11.602;2023-05-06T03:23:01;2.90;;;2.13;;
4630;SDS011;2328;48.170;11.602;2023-05-06T03:25:29;5.33;;;2.50;;
4630;SDS011;2328;48.170;11.602;2023-05-06T03:27:58;6.10;;;2.10;;
4630;SDS011;2328;48.170;11.602;2023-05-06T03:30:26;2.97;;;2.20;;
4630;SDS011;2328;48.170;11.602;2023-05-06T03:32:55;3.30;;;2.03;;
4630;SDS011;2328;48.170;11.602;2023-05-06T03:35:25;1.90;;;1.80;;
4630;SDS011;2328;48.170;11.602;2023-05-06T03:37:53;2.17;;;1.90;;
4630;SDS011;2328;48.170;11.602;2023-05-06T03:40:22;3.10;;;2.50;;
4630;SDS011;2328;48.170;11.602;2023-05-06T03:42:50;1.87;;;1.60;;
4630;SDS011;2328;48.170;11.602;2023-05-06T03:45:19;4.33;;;2.80;;
4630;SDS011;2328;48.170;11.602;2023-05-06T03:47:47;2.70;;;2.50;;
4630;SDS011;2328;48.170;11.602;2023-05-06T03:50:16;3.17;;;1.87;;
4630;SDS011;2328;48.170;11.602;2023-05-06T03:52:46;4.70;;;2.90;;
4630;SDS011;2328;48.170;11.602;2023-05-06T03:55:15;2.70;;;2.50;;
4630;SDS011;2328;48.170;11.602;2023-05-06T03:57:43;2.93;;;2.13;;
4630;SDS011;2328;48.170;11.602;2023-05-06T04:00:12;2.80;;;2.60;;
4630;SDS011;2328;48.170;11.602;2023-05-06T04:02:40;2.47;;;2.10;;
4630;SDS011;2328;48.170;11.602;2023-05-06T04:05:09;2.40;;;2.13;;
4630;SDS011;2328;48.170;11.602;2023-05-06T04:07:37;4.40;;;2.53;;
4630;SDS011;2328;48.170;11.602;2023-05-06T04:10:08;4.07;;;2.60;;
4630;SDS011;2328;48.170;11.602;2023-05-06T04:12:36;2.33;;;2.10;;
4630;SDS011;2328;48.170;11.602;2023-05-06T04:15:05;3.40;;;3.00;;
4630;SDS011;2328;48.170;11.602;2023-05-06T04:17:35;3.50;;;2.50;;
4630;SDS011;2328;48.170;11.602;2023-05-06T04:20:04;3.20;;;2.10;;
4630;SDS011;2328;48.170;11.602;2023-05-06T04:22:33;3.03;;;2.33;;
4630;SDS011;2328;48.170;11.602;2023-05-06T04:25:02;3.43;;;2.67;;
4630;SDS011;2328;48.170;11.602;2023-05-06T04:27:32;5.17;;;3.53;;
4630;SDS011;2328;48.170;11.602;2023-05-06T04:30:01;2.83;;;2.40;;
4630;SDS011;2328;48.170;11.602;2023-05-06T04:32:29;4.10;;;3.67;;
4630;SDS011;2328;48.170;11.602;2023-05-06T04:34:59;5.07;;;2.77;;
4630;SDS011;2328;48.170;11.602;2023-05-06T04:37:27;2.60;;;2.40;;
4630;SDS011;2328;48.170;11.602;2023-05-06T04:39:56;2.50;;;2.13;;
4630;SDS011;2328;48.170;11.602;2023-05-06T04:42:25;2.90;;;2.43;;
4630;SDS011;2328;48.170;11.602;2023-05-06T04:44:55;2.50;;;2.10;;
4630;SDS011;2328;48.170;11.602;2023-05-06T04:47:24;2.77;;;2.10;;
4630;SDS011;2328;48.170;11.602;2023-05-06T04:49:53;2.87;;;2.17;;
4630;SDS011;2328;48.170;11.602;2023-05-06T04:52:21;3.00;;;2.60;;
4630;SDS011;2328;48.170;11.602;2023-05-06T04:54:50;2.50;;;2.00;;
4630;SDS011;2328;48.170;11.602;2023-05-06T04:57:18;2.60;;;2.30;;
4630;SDS011;2328;48.170;11.602;2023-05-06T04:59:47;5.20;;;2.40;;
4630;SDS011;2328;48.170;11.602;2023-05-06T05:02:17;2.20;;;2.10;;
4630;SDS011;2328;48.170;11.602;2023-05-06T05:04:45;2.40;;;1.87;;
4630;SDS011;2328;48.170;11.602;2023-05-06T05:07:14;2.53;;;2.33;;
4630;SDS011;2328;48.170;11.602;2023-05-06T05:09:42;5.53;;;2.23;;
4630;SDS011;2328;48.170;11.602;2023-05-06T05:12:14;2.50;;;2.30;;
4630;SDS011;2328;48.170;11.602;2023-05-06T05:14:42;3.17;;;2.40;;
4630;SDS011;2328;48.170;11.602;2023-05-06T05:17:12;10.03;;;2.90;;
4630;SDS011;2328;48.170;11.602;2023-05-06T05:19:43;1.97;;;1.77;;
4630;SDS011;2328;48.170;11.602;2023-05-06T05:22:11;2.33;;;2.07;;
4630;SDS011;2328;48.170;11.602;2023-05-06T05:24:40;3.33;;;1.87;;
4630;SDS011;2328;48.170;11.602;2023-05-06T05:27:08;3.10;;;2.37;;
4630;SDS011;2328;48.170;11.602;2023-05-06T05:29:37;2.57;;;2.33;;
4630;SDS011;2328;48.170;11.602;2023-05-06T05:32:06;6.97;;;2.27;;
4630;SDS011;2328;48.170;11.602;2023-05-06T05:34:34;2.50;;;2.13;;
4630;SDS011;2328;48.170;11.602;2023-05-06T05:37:04;2.53;;;2.33;;
4630;SDS011;2328;48.170;11.602;2023-05-06T05:39:33;2.23;;;2.00;;
4630;SDS011;2328;48.170;11.602;2023-05-06T05:42:02;7.73;;;2.10;;
4630;SDS011;2328;48.170;11.602;2023-05-06T05:44:31;4.23;;;2.60;;
4630;SDS011;2328;48.170;11.602;2023-05-06T05:47:00;3.67;;;2.57;;
4630;SDS011;2328;48.170;11.602;2023-05-06T05:49:29;3.07;;;2.77;;
4630;SDS011;2328;48.170;11.602;2023-05-06T05:51:57;3.40;;;2.23;;
4630;SDS011;2328;48.170;11.602;2023-05-06T05:54:28;2.40;;;2.13;;
4630;SDS011;2328;48.170;11.602;2023-05-06T05:56:56;3.37;;;2.90;;
4630;SDS011;2328;48.170;11.602;2023-05-06T05:59:25;3.83;;;3.47;;
4630;SDS011;2328;48.170;11.602;2023-05-06T06:01:54;3.20;;;2.43;;
4630;SDS011;2328;48.170;11.602;2023-05-06T06:04:22;3.20;;;2.90;;
4630;SDS011;2328;48.170;11.602;2023-05-06T06:06:51;5.00;;;3.20;;
4630;SDS011;2328;48.170;11.602;2023-05-06T06:09:20;6.10;;;3.40;;
4630;SDS011;2328;48.170;11.602;2023-05-06T06:11:50;4.57;;;2.97;;
4630;SDS011;2328;48.170;11.602;2023-05-06T06:14:18;3.20;;;2.80;;
4630;SDS011;2328;48.170;11.602;2023-05-06T06:16:53;3.70;;;2.63;;
4630;SDS011;2328;48.170;11.602;2023-05-06T06:19:22;3.43;;;2.60;;
4630;SDS011;2328;48.170;11.602;2023-05-06T06:21:50;4.30;;;3.60;;
4630;SDS011;2328;48.170;11.602;2023-05-06T06:24:19;4.90;;;3.13;;
4630;SDS011;2328;48.170;11.602;2023-05-06T06:26:48;4.13;;;3.50;;
4630;SDS011;2328;48.170;11.602;2023-05-06T06:29:25;4.67;;;2.97;;
4630;SDS011;2328;48.170;11.602;2023-05-06T06:32:07;4.07;;;3.00;;
4630;SDS011;2328;48.170;11.602;2023-05-06T06:34:38;4.50;;;3.60;;
4630;SDS011;2328;48.170;11.602;2023-05-06T06:37:08;3.43;;;2.80;;
4630;SDS011;2328;48.170;11.602;2023-05-06T06:39:37;7.10;;;4.40;;
4630;SDS011;2328;48.170;11.602;2023-05-06T06:42:07;5.70;;;3.57;;
4630;SDS011;2328;48.170;11.602;2023-05-06T06:44:39;5.50;;;4.40;;
4630;SDS011;2328;48.170;11.602;2023-05-06T06:47:23;4.73;;;3.70;;
4630;SDS011;2328;48.170;11.602;2023-05-06T06:50:00;5.50;;;3.63;;
4630;SDS011;2328;48.170;11.602;2023-05-06T06:52:28;3.87;;;3.50;;
4630;SDS011;2328;48.170;11.602;2023-05-06T06:54:57;4.90;;;3.60;;
4630;SDS011;2328;48.170;11.602;2023-05-06T06:57:26;4.30;;;3.50;;
4630;SDS011;2328;48.170;11.602;2023-05-06T06:59:57;8.90;;;4.33;;
4630;SDS011;2328;48.170;11.602;2023-05-06T07:02:26;4.97;;;4.20;;
4630;SDS011;2328;48.170;11.602;2023-05-06T07:04:54;6.00;;;3.50;;
4630;SDS011;2328;48.170;11.602;2023-05-06T07:07:23;5.57;;;4.13;;
4630;SDS011;2328;48.170;11.602;2023-05-06T07:09:52;6.03;;;3.67;;
4630;SDS011;2328;48.170;11.602;2023-05-06T07:12:20;7.43;;;3.80;;
4630;SDS011;2328;48.170;11.602;2023-05-06T07:14:49;5.13;;;4.17;;
4630;SDS011;2328;48.170;11.602;2023-05-06T07:20:07;6.93;;;4.30;;
4630;SDS011;2328;48.170;11.602;2023-05-06T07:22:38;10.57;;;4.90;;
4630;SDS011;2328;48.170;11.602;2023-05-06T07:25:09;6.13;;;4.20;;
4630;SDS011;2328;48.170;11.602;2023-05-06T07:27:43;9.03;;;5.00;;
4630;SDS011;2328;48.170;11.602;2023-05-06T07:30:13;7.87;;;5.80;;
4630;SDS011;2328;48.170;11.602;2023-05-06T07:32:44;7.63;;;5.53;;
4630;SDS011;2328;48.170;11.602;2023-05-06T07:35:14;8.20;;;5.97;;
4630;SDS011;2328;48.170;11.602;2023-05-06T07:37:49;8.00;;;5.90;;
4630;SDS011;2328;48.170;11.602;2023-05-06T07:40:18;7.67;;;5.10;;
4630;SDS011;2328;48.170;11.602;2023-05-06T07:42:48;9.17;;;5.90;;
4630;SDS011;2328;48.170;11.602;2023-05-06T07:45:17;9.00;;;6.40;;
4630;SDS011;2328;48.170;11.602;2023-05-06T07:47:51;10.10;;;6.80;;
4630;SDS011;2328;48.170;11.602;2023-05-06T07:53:14;6.33;;;4.20;;
4630;SDS011;2328;48.170;11.602;2023-05-06T07:55:43;5.97;;;3.83;;
4630;SDS011;2328;48.170;11.602;2023-05-06T07:58:11;4.70;;;3.70;;
4630;SDS011;2328;48.170;11.602;2023-05-06T08:00:39;6.10;;;5.07;;
4630;SDS011;2328;48.170;11.602;2023-05-06T08:03:12;9.20;;;5.63;;
4630;SDS011;2328;48.170;11.602;2023-05-06T08:05:44;5.53;;;4.00;;
4630;SDS011;2328;48.170;11.602;2023-05-06T08:08:16;4.93;;;3.53;;
4630;SDS011;2328;48.170;11.602;2023-05-06T08:10:53;3.63;;;2.60;;
4630;SDS011;2328;48.170;11.602;2023-05-06T08:13:22;4.70;;;3.20;;
4630;SDS011;2328;48.170;11.602;2023-05-06T08:15:51;2.97;;;2.73;;
4630;SDS011;2328;48.170;11.602;2023-05-06T08:18:32;2.83;;;2.47;;
4630;SDS011;2328;48.170;11.602;2023-05-06T08:21:01;2.90;;;2.53;;
4630;SDS011;2328;48.170;11.602;2023-05-06T08:23:31;4.17;;;3.10;;
4630;SDS011;2328;48.170;11.602;2023-05-06T08:26:04;10.23;;;3.70;;
4630;SDS011;2328;48.170;11.602;2023-05-06T08:28:33;4.20;;;3.00;;
4630;SDS011;2328;48.170;11.602;2023-05-06T08:31:02;11.90;;;3.20;;
4630;SDS011;2328;48.170;11.602;2023-05-06T08:33:31;3.73;;;3.10;;
4630;SDS011;2328;48.170;11.602;2023-05-06T08:36:01;4.47;;;3.10;;
4630;SDS011;2328;48.170;11.602;2023-05-06T08:38:32;2.63;;;2.43;;
4630;SDS011;2328;48.170;11.602;2023-05-06T08:43:48;3.97;;;2.90;;
4630;SDS011;2328;48.170;11.602;2023-05-06T08:46:17;3.17;;;2.50;;
4630;SDS011;2328;48.170;11.602;2023-05-06T08:48:45;3.67;;;3.00;;
4630;SDS011;2328;48.170;11.602;2023-05-06T08:51:14;3.83;;;3.40;;
4630;SDS011;2328;48.170;11.602;2023-05-06T08:53:45;4.00;;;3.50;;
4630;SDS011;2328;48.170;11.602;2023-05-06T08:56:14;2.90;;;2.63;;
4630;SDS011;2328;48.170;11.602;2023-05-06T08:58:43;3.00;;;2.70;;
4630;SDS011;2328;48.170;11.602;2023-05-06T09:01:13;4.13;;;2.63;;
4630;SDS011;2328;48.170;11.602;2023-05-06T09:03:41;5.80;;;3.27;;
4630;SDS011;2328;48.170;11.602;2023-05-06T09:06:10;6.40;;;2.80;;
4630;SDS011;2328;48.170;11.602;2023-05-06T09:08:40;4.93;;;2.90;;
4630;SDS011;2328;48.170;11.602;2023-05-06T09:11:21;2.33;;;2.17;;
4630;SDS011;2328;48.170;11.602;2023-05-06T09:13:50;3.00;;;2.70;;
4630;SDS011;2328;48.170;11.602;2023-05-06T09:16:27;2.53;;;2.30;;
4630;SDS011;2328;48.170;11.602;2023-05-06T09:18:57;2.20;;;1.80;;
4630;SDS011;2328;48.170;11.602;2023-05-06T09:21:31;2.97;;;1.80;;
4630;SDS011;2328;48.170;11.602;2023-05-06T09:24:00;2.10;;;1.70;;
4630;SDS011;2328;48.170;11.602;2023-05-06T09:26:31;2.43;;;2.23;;
4630;SDS011;2328;48.170;11.602;2023-05-06T09:29:00;4.87;;;2.00;;
4630;SDS011;2328;48.170;11.602;2023-05-06T09:31:28;2.13;;;1.97;;
4630;SDS011;2328;48.170;11.602;2023-05-06T09:33:58;2.87;;;1.67;;
4630;SDS011;2328;48.170;11.602;2023-05-06T09:36:27;2.20;;;2.00;;
4630;SDS011;2328;48.170;11.602;2023-05-06T09:38:55;1.83;;;1.73;;
4630;SDS011;2328;48.170;11.602;2023-05-06T09:41:24;5.03;;;2.53;;
4630;SDS011;2328;48.170;11.602;2023-05-06T09:43:54;1.73;;;1.63;;
4630;SDS011;2328;48.170;11.602;2023-05-06T09:46:24;2.43;;;2.23;;
4630;SDS011;2328;48.170;11.602;2023-05-06T09:48:54;4.80;;;1.97;;
4630;SDS011;2328;48.170;11.602;2023-05-06T09:51:23;4.30;;;2.53;;
4630;SDS011;2328;48.170;11.602;2023-05-06T09:53:54;2.90;;;2.47;;
4630;SDS011;2328;48.170;11.602;2023-05-06T09:56:23;3.97;;;2.50;;
4630;SDS011;2328;48.170;11.602;2023-05-06T09:58:53;2.80;;;2.13;;
4630;SDS011;2328;48.170;11.602;2023-05-06T10:01:23;2.17;;;1.93;;
4630;SDS011;2328;48.170;11.602;2023-05-06T10:04:02;2.30;;;2.10;;
4630;SDS011;2328;48.170;11.602;2023-05-06T10:06:32;2.43;;;2.23;;
4630;SDS011;2328;48.170;11.602;2023-05-06T10:09:04;2.60;;;2.40;;
4630;SDS011;2328;48.170;11.602;2023-05-06T10:11:34;4.00;;;2.47;;
4630;SDS011;2328;48.170;11.602;2023-05-06T10:14:04;3.00;;;2.70;;
4630;SDS011;2328;48.170;11.602;2023-05-06T10:16:34;2.47;;;2.27;;
4630;SDS011;2328;48.170;11.602;2023-05-06T10:19:05;2.13;;;1.93;;
4630;SDS011;2328;48.170;11.602;2023-05-06T10:21:35;2.13;;;2.00;;
4630;SDS011;2328;48.170;11.602;2023-05-06T10:24:09;3.70;;;2.67;;
4630;SDS011;2328;48.170;11.602;2023-05-06T10:26:42;2.13;;;2.03;;
4630;SDS011;2328;48.170;11.602;2023-05-06T10:29:14;5.00;;;2.03;;
4630;SDS011;2328;48.170;11.602;2023-05-06T10:31:45;6.50;;;1.83;;
4630;SDS011;2328;48.170;11.602;2023-05-06T10:34:15;2.00;;;1.90;;
4630;SDS011;2328;48.170;11.602;2023-05-06T10:36:47;1.80;;;1.70;;
4630;SDS011;2328;48.170;11.602;2023-05-06T10:39:19;2.37;;;2.17;;
4630;SDS011;2328;48.170;11.602;2023-05-06T10:41:48;2.50;;;2.13;;
4630;SDS011;2328;48.170;11.602;2023-05-06T10:44:18;4.00;;;1.80;;
4630;SDS011;2328;48.170;11.602;2023-05-06T10:47:06;1.57;;;1.23;;
4630;SDS011;2328;48.170;11.602;2023-05-06T10:49:35;2.00;;;1.90;;
4630;SDS011;2328;48.170;11.602;2023-05-06T10:52:13;2.83;;;2.13;;
4630;SDS011;2328;48.170;11.602;2023-05-06T10:54:47;2.20;;;2.03;;
4630;SDS011;2328;48.170;11.602;2023-05-06T10:57:16;1.87;;;1.77;;
4630;SDS011;2328;48.170;11.602;2023-05-06T10:59:47;2.37;;;1.83;;
4630;SDS011;2328;48.170;11.602;2023-05-06T11:02:16;3.40;;;2.07;;
4630;SDS011;2328;48.170;11.602;2023-05-06T11:04:49;2.00;;;1.80;;
4630;SDS011;2328;48.170;11.602;2023-05-06T11:07:25;3.10;;;1.97;;
4630;SDS011;2328;48.170;11.602;2023-05-06T11:09:56;2.07;;;1.63;;
4630;SDS011;2328;48.170;11.602;2023-05-06T11:12:43;1.37;;;1.27;;
4630;SDS011;2328;48.170;11.602;2023-05-06T11:15:20;2.60;;;2.40;;
4630;SDS011;2328;48.170;11.602;2023-05-06T11:17:51;1.57;;;1.47;;
4630;SDS011;2328;48.170;11.602;2023-05-06T11:20:20;1.67;;;1.50;;
4630;SDS011;2328;48.170;11.602;2023-05-06T11:22:49;2.07;;;1.20;;
4630;SDS011;2328;48.170;11.602;2023-05-06T11:28:13;2.33;;;2.00;;
4630;SDS011;2328;48.170;11.602;2023-05-06T11:30:44;1.17;;;1.10;;
4630;SDS011;2328;48.170;11.602;2023-05-06T11:33:23;2.23;;;2.03;;
4630;SDS011;2328;48.170;11.602;2023-05-06T11:35:53;1.93;;;1.83;;
4630;SDS011;2328;48.170;11.602;2023-05-06T11:38:22;2.93;;;1.87;;
4630;SDS011;2328;48.170;11.602;2023-05-06T11:40:51;1.97;;;1.73;;
4630;SDS011;2328;48.170;11.602;2023-05-06T11:43:20;1.57;;;1.30;;
4630;SDS011;2328;48.170;11.602;2023-05-06T11:45:50;2.23;;;1.33;;
4630;SDS011;2328;48.170;11.602;2023-05-06T11:48:19;1.77;;;1.67;;
4630;SDS011;2328;48.170;11.602;2023-05-06T11:50:47;1.60;;;1.50;;
4630;SDS011;2328;48.170;11.602;2023-05-06T11:53:17;2.27;;;2.07;;
4630;SDS011;2328;48.170;11.602;2023-05-06T11:55:51;1.60;;;1.50;;
4630;SDS011;2328;48.170;11.602;2023-05-06T11:58:22;1.97;;;1.80;;
4630;SDS011;2328;48.170;11.602;2023-05-06T12:00:54;2.13;;;1.93;;
4630;SDS011;2328;48.170;11.602;2023-05-06T12:03:23;2.50;;;1.60;;
4630;SDS011;2328;48.170;11.602;2023-05-06T12:05:52;3.60;;;1.47;;
4630;SDS011;2328;48.170;11.602;2023-05-06T12:08:21;3.93;;;1.67;;
4630;SDS011;2328;48.170;11.602;2023-05-06T12:10:53;1.27;;;1.17;;
4630;SDS011;2328;48.170;11.602;2023-05-06T12:13:22;4.80;;;2.10;;
4630;SDS011;2328;48.170;11.602;2023-05-06T12:15:53;1.47;;;1.37;;
4630;SDS011;2328;48.170;11.602;2023-05-06T12:18:22;2.10;;;1.90;;
4630;SDS011;2328;48.170;11.602;2023-05-06T12:20:52;1.40;;;1.30;;
4630;SDS011;2328;48.170;11.602;2023-05-06T12:23:30;1.70;;;1.60;;
4630;SDS011;2328;48.170;11.602;2023-05-06T12:26:00;1.63;;;1.20;;
4630;SDS011;2328;48.170;11.602;2023-05-06T12:28:29;1.57;;;1.47;;
4630;SDS011;2328;48.170;11.602;2023-05-06T12:31:07;1.77;;;1.67;;
4630;SDS011;2328;48.170;11.602;2023-05-06T12:33:49;1.93;;;1.53;;
4630;SDS011;2328;48.170;11.602;2023-05-06T12:36:19;1.47;;;1.37;;
4630;SDS011;2328;48.170;11.602;2023-05-06T12:38:54;1.80;;;1.60;;
4630;SDS011;2328;48.170;11.602;2023-05-06T12:41:33;1.60;;;1.50;;
4630;SDS011;2328;48.170;11.602;2023-05-06T12:44:03;2.60;;;1.20;;
4630;SDS011;2328;48.170;11.602;2023-05-06T12:46:57;2.53;;;2.27;;
4630;SDS011;2328;48.170;11.602;2023-05-06T12:49:26;1.40;;;1.00;;
4630;SDS011;2328;48.170;11.602;2023-05-06T12:52:05;1.63;;;1.53;;
4630;SDS011;2328;48.170;11.602;2023-05-06T12:54:34;1.93;;;1.20;;
4630;SDS011;2328;48.170;11.602;2023-05-06T12:57:04;2.50;;;1.63;;
4630;SDS011;2328;48.170;11.602;2023-05-06T12:59:35;1.83;;;1.63;;
4630;SDS011;2328;48.170;11.602;2023-05-06T13:02:06;1.90;;;1.63;;
4630;SDS011;2328;48.170;11.602;2023-05-06T13:04:34;4.80;;;1.90;;
4630;SDS011;2328;48.170;11.602;2023-05-06T13:07:03;6.10;;;1.40;;
4630;SDS011;2328;48.170;11.602;2023-05-06T13:09:32;1.90;;;1.80;;
4630;SDS011;2328;48.170;11.602;2023-05-06T13:12:01;1.30;;;1.20;;
4630;SDS011;2328;48.170;11.602;2023-05-06T13:14:33;1.43;;;1.33;;
4630;SDS011;2328;48.170;11.602;2023-05-06T13:17:07;1.90;;;1.27;;
4630;SDS011;2328;48.170;11.602;2023-05-06T13:19:36;1.60;;;1.20;;
4630;SDS011;2328;48.170;11.602;2023-05-06T13:22:06;1.43;;;1.33;;
4630;SDS011;2328;48.170;11.602;2023-05-06T13:24:35;1.57;;;1.47;;
4630;SDS011;2328;48.170;11.602;2023-05-06T13:27:04;1.40;;;1.30;;
4630;SDS011;2328;48.170;11.602;2023-05-06T13:29:33;2.70;;;1.20;;
4630;SDS011;2328;48.170;11.602;2023-05-06T13:32:16;3.43;;;1.23;;
4630;SDS011;2328;48.170;11.602;2023-05-06T13:34:46;1.60;;;1.50;;
4630;SDS011;2328;48.170;11.602;2023-05-06T13:40:03;1.20;;;1.10;;
4630;SDS011;2328;48.170;11.602;2023-05-06T13:42:40;1.27;;;1.17;;
4630;SDS011;2328;48.170;11.602;2023-05-06T13:45:17;1.97;;;1.30;;
4630;SDS011;2328;48.170;11.602;2023-05-06T13:47:47;1.50;;;1.40;;
4630;SDS011;2328;48.170;11.602;2023-05-06T13:50:16;1.50;;;1.40;;
4630;SDS011;2328;48.170;11.602;2023-05-06T13:52:48;2.27;;;1.53;;
4630;SDS011;2328;48.170;11.602;2023-05-06T13:55:17;1.57;;;1.20;;
4630;SDS011;2328;48.170;11.602;2023-05-06T13:57:47;1.43;;;1.23;;
4630;SDS011;2328;48.170;11.602;2023-05-06T14:00:16;6.93;;;1.80;;
4630;SDS011;2328;48.170;11.602;2023-05-06T14:02:47;1.40;;;1.27;;
4630;SDS011;2328;48.170;11.602;2023-05-06T14:05:16;1.20;;;1.17;;
4630;SDS011;2328;48.170;11.602;2023-05-06T14:07:47;3.37;;;1.40;;
4630;SDS011;2328;48.170;11.602;2023-05-06T14:10:24;1.30;;;1.20;;
4630;SDS011;2328;48.170;11.602;2023-05-06T14:12:55;0.90;;;0.90;;
4630;SDS011;2328;48.170;11.602;2023-05-06T14:15:26;1.60;;;0.90;;
4630;SDS011;2328;48.170;11.602;2023-05-06T14:18:02;1.90;;;1.30;;
4630;SDS011;2328;48.170;11.602;2023-05-06T14:20:54;1.30;;;1.20;;
4630;SDS011;2328;48.170;11.602;2023-05-06T14:23:32;1.10;;;1.10;;
4630;SDS011;2328;48.170;11.602;2023-05-06T14:26:01;0.90;;;0.90;;
4630;SDS011;2328;48.170;11.602;2023-05-06T14:28:31;1.17;;;1.07;;
4630;SDS011;2328;48.170;11.602;2023-05-06T14:31:00;6.50;;;1.37;;
4630;SDS011;2328;48.170;11.602;2023-05-06T14:33:31;3.43;;;1.37;;
4630;SDS011;2328;48.170;11.602;2023-05-06T14:36:01;1.63;;;1.47;;
4630;SDS011;2328;48.170;11.602;2023-05-06T14:38:30;2.13;;;0.90;;
4630;SDS011;2328;48.170;11.602;2023-05-06T14:40:59;1.00;;;1.00;;
4630;SDS011;2328;48.170;11.602;2023-05-06T14:43:28;0.97;;;0.97;;
4630;SDS011;2328;48.170;11.602;2023-05-06T14:46:05;1.10;;;1.03;;
4630;SDS011;2328;48.170;11.602;2023-05-06T14:48:36;0.87;;;0.70;;
4630;SDS011;2328;48.170;11.602;2023-05-06T14:51:05;1.00;;;1.00;;
4630;SDS011;2328;48.170;11.602;2023-05-06T14:53:34;0.83;;;0.83;;
4630;SDS011;2328;48.170;11.602;2023-05-06T14:56:05;1.17;;;1.07;;
4630;SDS011;2328;48.170;11.602;2023-05-06T14:58:34;1.50;;;1.20;;
4630;SDS011;2328;48.170;11.602;2023-05-06T15:01:04;0.80;;;0.80;;
4630;SDS011;2328;48.170;11.602;2023-05-06T15:03:33;2.50;;;1.30;;
4630;SDS011;2328;48.170;11.602;2023-05-06T15:06:05;1.00;;;0.90;;
4630;SDS011;2328;48.170;11.602;2023-05-06T15:08:41;5.13;;;1.27;;
4630;SDS011;2328;48.170;11.602;2023-05-06T15:11:18;3.57;;;1.37;;
4630;SDS011;2328;48.170;11.602;2023-05-06T15:13:47;0.93;;;0.83;;
4630;SDS011;2328;48.170;11.602;2023-05-06T15:16:15;1.93;;;1.30;;
4630;SDS011;2328;48.170;11.602;2023-05-06T15:18:48;0.87;;;0.87;;
4630;SDS011;2328;48.170;11.602;2023-05-06T15:21:18;0.80;;;0.80;;
4630;SDS011;2328;48.170;11.602;2023-05-06T15:23:53;1.03;;;1.00;;
4630;SDS011;2328;48.170;11.602;2023-05-06T15:26:22;1.23;;;1.10;;
4630;SDS011;2328;48.170;11.602;2023-05-06T15:28:53;1.10;;;0.83;;
4630;SDS011;2328;48.170;11.602;2023-05-06T15:31:22;1.47;;;1.37;;
4630;SDS011;2328;48.170;11.602;2023-05-06T15:33:55;1.60;;;0.83;;